METAR AND TAF INFORMATION
METAR FOR CYYZ
ADDS - METARS form results

(1624 UTC 22 April 2018)
Data provider http://aviationweather.gov/adds/metars/
 
METAR text: CYYZ 221600Z 00000KT 15SM SKC 14/M07 A3044 RMK SLP314
Conditions at: CYYZ (TORONTO/PEARSON , ON, CA) observed 1600 UTC 22 April 2018
Temperature: 14.0°C (57°F)
Dewpoint: -7.0°C (19°F) [RH = 23%]
Pressure (altimeter): 30.44 inches Hg (1030.9 mb)
[Sea-level pressure: 1031.4 mb]
Winds: calm
Visibility: 15 miles (24 km)
Ceiling: at least 12,000 feet AGL
Clouds: clear skies
Weather: no significant weather observed at this time

Forecast for: CYYZ (TORONTO/PEARSON , ON, CA)
Text: TAF CYYZ 221439Z 2215/2318 VRB03KT P6SM SKC
Forecast period: 1500 to 1600 UTC 22 April 2018
Forecast type: FROM: standard forecast or significant change
Winds: variable direction winds at 3 MPH (3 knots; 1.6 m/s)
Visibility: 6 or more miles (10+ km)
Clouds: clear skies
Weather: no significant weather forecast for this period
Forecast for: CYYZ (TORONTO/PEARSON , ON, CA)
Text: TAF CYYZ 221439Z 2215/2318 VRB03KT P6SM SKC
Forecast period: 1500 to 1600 UTC 22 April 2018
Forecast type: FROM: standard forecast or significant change
Winds: variable direction winds at 3 MPH (3 knots; 1.6 m/s)
Visibility: 6 or more miles (10+ km)
Clouds: clear skies
Weather: no significant weather forecast for this period
Forecast for: CYYZ (TORONTO/PEARSON , ON, CA)
Text: TAF CYYZ 221439Z 2215/2318 VRB03KT P6SM SKC
Forecast period: 1600 UTC 22 April 2018 to 0100 UTC 23 April 2018
Forecast type: BECOMING: Conditions expected to become as follows by 1800 UTC 22 April 2018
Winds: from the SSE (160 degrees) at 12 MPH (10 knots; 5.2 m/s)
Visibility: 6 or more miles (10+ km)
Clouds: clear skies
Weather: no significant weather forecast for this period
Forecast for: CYYZ (TORONTO/PEARSON , ON, CA)
Text: TAF CYYZ 221439Z 2215/2318 VRB03KT P6SM SKC
Forecast period: 1600 UTC 22 April 2018 to 0100 UTC 23 April 2018
Forecast type: BECOMING: Conditions expected to become as follows by 1800 UTC 22 April 2018
Winds: from the SSE (160 degrees) at 12 MPH (10 knots; 5.2 m/s)
Visibility: 6 or more miles (10+ km)
Clouds: clear skies
Weather: no significant weather forecast for this period
Forecast for: CYYZ (TORONTO/PEARSON , ON, CA)
Text: TAF CYYZ 221439Z 2215/2318 VRB03KT P6SM SKC
Forecast period: 0100 to 1400 UTC 23 April 2018
Forecast type: BECOMING: Conditions expected to become as follows by 0300 UTC 23 April 2018
Winds: from the NNE (20 degrees) at 3 MPH (3 knots; 1.6 m/s)
Visibility: 6 or more miles (10+ km)
Clouds: clear skies
Weather: no significant weather forecast for this period
Forecast for: CYYZ (TORONTO/PEARSON , ON, CA)
Text: TAF CYYZ 221439Z 2215/2318 VRB03KT P6SM SKC
Forecast period: 0100 to 1400 UTC 23 April 2018
Forecast type: BECOMING: Conditions expected to become as follows by 0300 UTC 23 April 2018
Winds: from the NNE (20 degrees) at 3 MPH (3 knots; 1.6 m/s)
Visibility: 6 or more miles (10+ km)
Clouds: clear skies
Weather: no significant weather forecast for this period
Forecast for: CYYZ (TORONTO/PEARSON , ON, CA)
Text: TAF CYYZ 221439Z 2215/2318 VRB03KT P6SM SKC
Forecast period: 1400 to 1800 UTC 23 April 2018
Forecast type: FROM: standard forecast or significant change
Winds: from the ESE (110 degrees) at 12 MPH (10 knots; 5.2 m/s)
Visibility: 6 or more miles (10+ km)
Clouds: few clouds at 5000 feet AGL
Weather: no significant weather forecast for this period
Forecast for: CYYZ (TORONTO/PEARSON , ON, CA)
Text: TAF CYYZ 221439Z 2215/2318 VRB03KT P6SM SKC
Forecast period: 1400 to 1800 UTC 23 April 2018
Forecast type: FROM: standard forecast or significant change
Winds: from the ESE (110 degrees) at 12 MPH (10 knots; 5.2 m/s)
Visibility: 6 or more miles (10+ km)
Clouds: few clouds at 5000 feet AGL
Weather: no significant weather forecast for this period

 AIRPORT MAP

 RUNWAY INFORMATION
Runway 05 Runway length 11120 ft Runway width 200 ft
Runway elevation 564 ft Runway displaced threshold 135 ft Runway heading 47
Runway 23 Runway length 11120 ft Runway width 200 ft
Runway elevation 560 ft Runway displaced threshold 485 ft Runway heading 227
Runway 06L Runway length 9697 ft Runway width 200 ft
Runway elevation 529 ft Runway displaced threshold 0 ft Runway heading 47
Runway 24R Runway length 9697 ft Runway width 200 ft
Runway elevation 546 ft Runway displaced threshold 197 ft Runway heading 227
Runway 06R Runway length 9000 ft Runway width 200 ft
Runway elevation 525 ft Runway displaced threshold 0 ft Runway heading 47
Runway 24L Runway length 9000 ft Runway width 200 ft
Runway elevation 547 ft Runway displaced threshold 0 ft Runway heading 227
Runway 15L Runway length 11050 ft Runway width 200 ft
Runway elevation 557 ft Runway displaced threshold 0 ft Runway heading 137
Runway 33R Runway length 11050 ft Runway width 200 ft
Runway elevation 544 ft Runway displaced threshold 0 ft Runway heading 317
Runway 15R Runway length 9088 ft Runway width 200 ft
Runway elevation 551 ft Runway displaced threshold 588 ft Runway heading 137
Runway 33L Runway length 9088 ft Runway width 200 ft
Runway elevation 544 ft Runway displaced threshold 588 ft Runway heading 317

 AIRPORT FREQUENCIES
Type ARR Name APP Frequency 124.475 MHZ
Type ATIS Name ATIS Frequency 112.15 MHZ
Type CLD Name CLNC DEL Frequency 121.3 MHZ
Type DEP Name DEP Frequency 127.575 MHZ
Type GND Name GND Frequency 118 MHZ
Type RCO Name LONDON RDO Frequency 123.275 MHZ
Type RMP Name APN ADVSY Frequency 122.075 MHZ
Type TWR Name TWR Frequency 118.35 MHZ
Type VFR ADV Name Toronto Ce Frequency 119.3 MHZ

 AIRPORT NEAR NAVIGATION AIDS
Type DME Name Toronto Frequency 109100 KHZ
Type DME Name Toronto Frequency 109300 KHZ
Type DME Name Toronto Frequency 110950 KHZ
Type VOR-DME Name Pearson Frequency 116550 KHZ
Type VOR-DME Name Toronto Frequency 112150 KHZ
Type NDB Name Rexdale Frequency 385 KHZ
Type NDB Name Britannia Frequency 236 KHZ
Type NDB Name Meadowvale Frequency 341 KHZ
Type NDB Name Woodhill Frequency 403 KHZ
Type NDB Name Queensway Frequency 368 KHZ



Powered by Virtual Airlines Manager [v2.6.2]